Time;durP1;ratioP1;P1;durP2;ratioP2;P2;SDS_P1;SDS_P2;PMS_P1;PMS_P2;Temp;Humidity;BMP_temperature;BMP_pressure;BME280_temperature;BME280_humidity;BME280_pressure;Samples;Min_cycle;Max_cycle;Signal;HPM_P1;HPM_P2
2021/05/11 00:00:40;;;;;;;11.40;3.30;;;17.70;83.10;;;;;;5085154;28;20421;-71
2021/05/11 00:03:07;;;;;;;10.73;3.17;;;17.60;83.20;;;;;;5081959;28;20504;-70
2021/05/11 00:05:34;;;;;;;10.80;3.00;;;17.60;82.80;;;;;;5083537;28;20974;-71
2021/05/11 00:08:00;;;;;;;10.70;3.05;;;17.70;82.50;;;;;;5069025;28;20426;-70
2021/05/11 00:10:28;;;;;;;8.95;2.67;;;17.60;82.00;;;;;;5083803;28;20526;-71
2021/05/11 00:12:55;;;;;;;13.45;3.30;;;17.60;81.00;;;;;;5067216;28;20426;-72
2021/05/11 00:15:22;;;;;;;8.55;3.05;;;17.60;81.10;;;;;;5081810;28;20481;-74
2021/05/11 00:17:48;;;;;;;8.27;2.63;;;17.60;81.00;;;;;;5083665;28;20429;-70
2021/05/11 00:20:18;;;;;;;8.73;2.70;;;17.60;80.10;;;;;;5082711;28;20445;-72
2021/05/11 00:22:44;;;;;;;12.02;3.05;;;17.60;79.90;;;;;;5086039;28;20424;-71
2021/05/11 00:25:11;;;;;;;10.18;2.70;;;17.60;80.00;;;;;;5084934;28;20481;-71
2021/05/11 00:27:38;;;;;;;8.93;2.80;;;17.60;79.60;;;;;;5081663;28;20429;-71
2021/05/11 00:30:06;;;;;;;11.43;2.78;;;17.60;79.70;;;;;;5067617;28;20435;-71
2021/05/11 00:32:32;;;;;;;12.88;3.20;;;17.50;79.30;;;;;;5084886;28;20455;-71
2021/05/11 00:34:58;;;;;;;10.20;3.10;;;17.50;79.80;;;;;;5100510;28;20436;-72
2021/05/11 00:37:26;;;;;;;10.20;3.00;;;17.50;79.70;;;;;;5083537;28;20491;-71
2021/05/11 00:39:52;;;;;;;12.70;3.20;;;17.50;78.90;;;;;;5085875;28;20417;-71
2021/05/11 00:42:19;;;;;;;11.98;3.20;;;17.50;78.70;;;;;;5082279;28;20471;-72
2021/05/11 00:44:45;;;;;;;13.05;3.50;;;17.50;79.70;;;;;;5068187;28;20492;-71
2021/05/11 00:47:12;;;;;;;14.30;3.50;;;17.40;79.20;;;;;;5079707;28;20527;-72
2021/05/11 00:49:38;;;;;;;13.60;4.10;;;17.40;78.70;;;;;;5081655;28;20442;-72
2021/05/11 00:52:07;;;;;;;17.10;5.03;;;17.40;79.20;;;;;;5082275;28;20452;-71
2021/05/11 00:54:34;;;;;;;12.02;4.28;;;17.40;79.50;;;;;;5084831;28;20469;-73
2021/05/11 00:57:02;;;;;;;9.75;3.67;;;17.40;80.10;;;;;;5080826;28;20901;-72
2021/05/11 00:59:30;;;;;;;11.27;3.73;;;17.40;80.30;;;;;;5083023;28;20453;-72
2021/05/11 01:01:58;;;;;;;21.13;4.00;;;17.40;79.80;;;;;;5082749;28;20497;-71
2021/05/11 01:04:25;;;;;;;12.15;3.50;;;17.40;79.80;;;;;;5067287;28;20433;-71
2021/05/11 01:06:52;;;;;;;12.10;3.40;;;17.40;80.10;;;;;;5083171;28;20437;-71
2021/05/11 01:09:18;;;;;;;12.23;3.78;;;17.40;80.10;;;;;;5082858;28;20433;-71
2021/05/11 01:11:46;;;;;;;12.15;3.83;;;17.40;80.30;;;;;;5084003;28;20573;-72
2021/05/11 01:14:12;;;;;;;13.73;3.47;;;17.40;80.70;;;;;;5067291;28;20449;-72
2021/05/11 01:16:40;;;;;;;10.85;3.25;;;17.40;80.60;;;;;;5079580;28;20440;-71
2021/05/11 01:19:11;;;;;;;12.45;3.67;;;17.40;80.30;;;;;;5083472;28;20516;-70
2021/05/11 01:21:43;;;;;;;13.32;3.60;;;17.40;80.40;;;;;;5082910;28;20529;-72
2021/05/11 01:24:12;;;;;;;9.80;3.50;;;17.40;80.50;;;;;;5085403;28;20472;-71
2021/05/11 01:26:47;;;;;;;11.57;3.72;;;17.30;80.60;;;;;;5082086;28;20758;-71
2021/05/11 01:48:50;;;;;;;17.40;4.97;;;17.30;80.80;;;;;;5084474;28;20828;-71
2021/05/11 01:57:34;;;;;;;13.90;4.47;;;17.20;81.70;;;;;;5082315;28;20830;-71
2021/05/11 02:24:40;;;;;;;21.08;7.70;;;17.00;84.20;;;;;;5087855;28;20500;-70
2021/05/11 02:27:06;;;;;;;21.38;7.68;;;16.90;84.00;;;;;;5086980;28;20418;-72
2021/05/11 02:29:34;;;;;;;26.88;8.82;;;16.90;84.20;;;;;;5088012;28;20430;-70
2021/05/11 02:32:00;;;;;;;22.55;9.60;;;16.90;84.20;;;;;;5067122;28;20435;-70
2021/05/11 02:34:26;;;;;;;30.85;10.73;;;16.90;84.00;;;;;;5087734;28;20483;-71
2021/05/11 02:36:53;;;;;;;28.80;11.25;;;16.80;84.30;;;;;;5088161;28;20477;-71
2021/05/11 02:39:19;;;;;;;30.50;11.65;;;16.80;84.70;;;;;;5087494;28;20835;-72
2021/05/11 02:41:46;;;;;;;32.67;12.73;;;16.70;85.20;;;;;;5085434;28;20417;-72
2021/05/11 02:44:16;;;;;;;29.85;10.68;;;16.70;85.10;;;;;;5085483;28;20856;-71
2021/05/11 02:46:43;;;;;;;30.48;9.73;;;16.70;85.30;;;;;;5067696;28;20418;-72
2021/05/11 02:49:10;;;;;;;24.70;10.60;;;16.70;85.90;;;;;;5084629;28;20425;-71
2021/05/11 02:51:37;;;;;;;24.17;11.43;;;16.60;86.30;;;;;;5081950;28;20435;-72
2021/05/11 02:54:03;;;;;;;25.63;11.15;;;16.60;86.40;;;;;;5087983;28;20436;-72
2021/05/11 02:56:30;;;;;;;29.60;11.73;;;16.60;86.60;;;;;;5087014;28;20924;-71
2021/05/11 02:58:56;;;;;;;32.75;13.00;;;16.50;86.70;;;;;;5088136;28;20458;-72
2021/05/11 03:01:23;;;;;;;24.63;11.63;;;16.50;86.80;;;;;;5082832;28;20782;-71
2021/05/11 03:03:50;;;;;;;32.45;12.07;;;16.40;88.10;;;;;;5082161;28;20438;-72
2021/05/11 03:06:16;;;;;;;24.25;11.55;;;16.40;89.50;;;;;;5084829;28;20502;-71
2021/05/11 03:08:44;;;;;;;26.63;11.00;;;16.30;89.80;;;;;;5085419;28;20421;-73
2021/05/11 03:11:11;;;;;;;27.88;11.27;;;16.30;90.10;;;;;;5083190;28;20854;-71
2021/05/11 03:13:37;;;;;;;30.08;11.80;;;16.20;90.00;;;;;;5083148;28;20468;-72
2021/05/11 03:16:04;;;;;;;25.80;11.83;;;16.20;90.00;;;;;;5083970;28;20426;-72
2021/05/11 03:18:30;;;;;;;25.15;11.15;;;16.10;90.00;;;;;;5081587;28;20425;-70
2021/05/11 03:20:58;;;;;;;30.90;12.07;;;16.10;90.10;;;;;;5096008;28;20427;-71
2021/05/11 03:23:24;;;;;;;30.42;11.85;;;16.10;90.10;;;;;;5080782;28;20482;-71
2021/05/11 03:25:51;;;;;;;29.17;12.13;;;16.10;90.10;;;;;;5081841;28;20470;-71
2021/05/11 03:28:17;;;;;;;26.73;11.35;;;16.10;90.10;;;;;;5087010;28;20491;-72
2021/05/11 03:30:44;;;;;;;28.13;11.80;;;16.10;90.10;;;;;;5083217;28;20432;-71
2021/05/11 03:33:10;;;;;;;28.40;12.02;;;16.10;90.20;;;;;;5082193;28;20441;-71
2021/05/11 03:35:37;;;;;;;32.75;11.52;;;16.00;90.20;;;;;;5083900;28;20421;-71
2021/05/11 03:38:06;;;;;;;27.23;11.52;;;16.00;90.10;;;;;;5083549;28;20482;-71
2021/05/11 03:40:32;;;;;;;27.42;10.80;;;16.00;90.30;;;;;;5086302;28;20429;-72
2021/05/11 03:43:03;;;;;;;24.48;10.30;;;16.00;90.40;;;;;;5084562;28;20435;-71
2021/05/11 03:45:34;;;;;;;23.05;9.88;;;16.00;90.20;;;;;;5086898;28;20429;-74
2021/05/11 03:48:00;;;;;;;20.38;9.18;;;15.90;90.10;;;;;;5083877;28;21130;-72
2021/05/11 03:50:27;;;;;;;18.92;9.00;;;15.90;89.90;;;;;;5082636;28;20448;-70
2021/05/11 03:52:53;;;;;;;22.15;9.73;;;15.90;89.90;;;;;;5084423;28;20437;-72
2021/05/11 03:55:20;;;;;;;18.95;8.43;;;15.90;90.10;;;;;;5086977;28;20471;-71
2021/05/11 03:57:47;;;;;;;21.10;8.98;;;15.80;90.00;;;;;;5078210;28;20415;-72
2021/05/11 04:00:15;;;;;;;18.42;8.70;;;15.80;90.30;;;;;;5086617;28;20429;-73
2021/05/11 04:02:41;;;;;;;21.67;9.00;;;15.80;90.30;;;;;;5084571;28;20482;-72
2021/05/11 04:05:10;;;;;;;22.95;9.73;;;15.70;90.40;;;;;;5083270;28;20856;-71
2021/05/11 04:07:38;;;;;;;27.52;10.00;;;15.80;90.30;;;;;;5084728;28;20414;-70
2021/05/11 04:10:12;;;;;;;21.75;9.85;;;15.80;90.40;;;;;;5084046;28;20837;-71
2021/05/11 04:18:07;;;;;;;19.92;8.43;;;15.70;90.80;;;;;;5079984;28;20880;-71
2021/05/11 04:20:33;;;;;;;20.90;8.60;;;15.70;91.00;;;;;;5084742;28;20915;-71
2021/05/11 04:23:00;;;;;;;20.85;8.35;;;15.70;91.20;;;;;;5085719;28;20551;-71
2021/05/11 04:25:26;;;;;;;15.45;7.53;;;15.70;91.10;;;;;;5084369;28;20521;-70
2021/05/11 04:27:54;;;;;;;22.08;9.90;;;15.70;91.40;;;;;;5085874;28;20418;-74
2021/05/11 04:30:21;;;;;;;16.75;7.03;;;15.70;91.40;;;;;;5081482;28;20596;-71
2021/05/11 04:32:47;;;;;;;20.30;7.07;;;15.80;91.50;;;;;;5082165;28;20410;-72
2021/05/11 04:35:14;;;;;;;18.17;6.72;;;15.70;91.50;;;;;;5082881;28;20424;-72
2021/05/11 04:37:40;;;;;;;17.55;6.50;;;15.70;91.50;;;;;;5083593;28;20422;-73
2021/05/11 04:40:08;;;;;;;15.73;6.35;;;15.70;91.50;;;;;;5081724;28;20430;-73
2021/05/11 04:42:34;;;;;;;16.17;6.13;;;15.70;91.50;;;;;;5081602;28;20423;-74
2021/05/11 04:45:01;;;;;;;15.23;6.40;;;15.80;91.50;;;;;;5082968;28;20429;-73
2021/05/11 04:47:45;;;;;;;13.52;6.10;;;15.70;91.50;;;;;;5080110;28;20431;-74
2021/05/11 04:50:13;;;;;;;14.13;5.78;;;15.70;91.60;;;;;;5085041;28;20920;-73
2021/05/11 04:52:41;;;;;;;16.95;6.30;;;15.80;91.50;;;;;;5064270;28;20968;-73
2021/05/11 04:55:09;;;;;;;13.65;6.13;;;15.80;91.60;;;;;;5084416;28;20991;-72
2021/05/11 04:57:35;;;;;;;13.75;6.07;;;15.70;91.60;;;;;;5083419;28;20882;-74
2021/05/11 05:00:04;;;;;;;17.02;6.40;;;15.70;91.80;;;;;;5084187;28;20426;-73
2021/05/11 05:02:31;;;;;;;18.30;6.37;;;15.70;91.80;;;;;;5080614;28;20422;-73
2021/05/11 05:04:58;;;;;;;15.95;6.38;;;15.70;92.00;;;;;;5086286;28;20426;-73
2021/05/11 05:07:24;;;;;;;17.83;6.57;;;15.70;92.20;;;;;;5081737;28;20466;-73
2021/05/11 05:09:51;;;;;;;15.57;7.00;;;15.70;92.20;;;;;;5100702;28;20431;-73
2021/05/11 05:12:17;;;;;;;19.20;9.02;;;15.80;92.50;;;;;;5079979;28;20474;-72
2021/05/11 05:14:43;;;;;;;21.83;10.02;;;15.70;92.50;;;;;;5081669;28;20798;-70
2021/05/11 05:17:11;;;;;;;15.10;7.57;;;15.80;92.50;;;;;;5081745;28;20436;-74
2021/05/11 05:19:37;;;;;;;17.38;7.78;;;15.80;92.60;;;;;;5083392;28;20508;-73
2021/05/11 05:22:06;;;;;;;17.83;8.10;;;15.80;92.70;;;;;;5083158;28;20483;-72
2021/05/11 05:24:34;;;;;;;17.95;8.25;;;15.80;92.80;;;;;;5084477;28;20433;-73
2021/05/11 05:27:08;;;;;;;18.88;8.10;;;15.80;92.80;;;;;;5080923;28;20413;-72
2021/05/11 05:29:34;;;;;;;15.05;8.20;;;15.80;92.90;;;;;;5082653;28;20429;-72
2021/05/11 05:32:01;;;;;;;19.08;8.90;;;15.90;93.10;;;;;;5078206;28;20426;-73
2021/05/11 05:34:28;;;;;;;19.85;8.88;;;15.90;93.10;;;;;;5053886;28;20425;-74
2021/05/11 05:36:54;;;;;;;18.80;8.90;;;15.90;93.20;;;;;;5076577;28;20428;-75
2021/05/11 05:39:26;;;;;;;19.20;8.57;;;15.90;93.30;;;;;;5076606;28;20455;-73
2021/05/11 05:41:53;;;;;;;18.33;8.30;;;15.90;93.50;;;;;;5074832;28;20814;-72
2021/05/11 05:44:19;;;;;;;18.97;7.40;;;15.90;93.50;;;;;;5077932;28;20433;-74
2021/05/11 05:46:45;;;;;;;18.70;7.60;;;15.90;93.60;;;;;;5074925;28;20421;-74
2021/05/11 05:49:12;;;;;;;18.83;7.57;;;16.00;93.70;;;;;;5076652;28;20518;-73
2021/05/11 05:51:39;;;;;;;20.57;7.87;;;16.00;93.80;;;;;;5072935;28;20475;-73
2021/05/11 05:54:06;;;;;;;18.75;7.75;;;16.00;93.90;;;;;;5076373;28;20514;-72
2021/05/11 05:56:32;;;;;;;22.80;8.45;;;16.00;94.00;;;;;;5077468;28;20480;-74
2021/05/11 05:58:58;;;;;;;17.08;7.80;;;16.00;94.10;;;;;;5056936;28;20428;-73
2021/05/11 06:01:28;;;;;;;19.58;8.15;;;16.00;94.10;;;;;;5058609;28;20438;-77
2021/05/11 06:04:09;;;;;;;18.25;7.82;;;16.10;94.30;;;;;;5075050;28;20412;-72
2021/05/11 06:06:35;;;;;;;20.48;8.27;;;16.10;94.30;;;;;;5074976;28;20904;-73
2021/05/11 06:09:06;;;;;;;22.92;8.88;;;16.10;94.40;;;;;;5068544;28;20449;-74
2021/05/11 06:11:38;;;;;;;24.30;8.43;;;16.10;94.50;;;;;;5075690;28;20415;-72
2021/05/11 06:14:12;;;;;;;23.13;7.72;;;16.10;94.40;;;;;;5077579;28;20430;-73
2021/05/11 06:19:23;;;;;;;20.15;6.78;;;16.20;94.40;;;;;;5082331;28;20826;-73
2021/05/11 06:21:49;;;;;;;17.77;6.57;;;16.30;94.40;;;;;;5084553;28;20433;-72
2021/05/11 06:24:17;;;;;;;18.13;6.88;;;16.30;94.60;;;;;;5080981;28;20824;-73
2021/05/11 06:26:43;;;;;;;21.53;6.63;;;16.30;94.40;;;;;;5081822;28;20421;-72
2021/05/11 06:29:10;;;;;;;18.15;6.38;;;16.30;94.20;;;;;;5080847;28;20780;-73
2021/05/11 06:31:36;;;;;;;18.30;6.05;;;16.40;94.40;;;;;;5077368;28;20533;-74
2021/05/11 06:34:05;;;;;;;17.02;7.03;;;16.40;94.40;;;;;;5080408;28;20428;-72
2021/05/11 06:36:31;;;;;;;13.73;6.05;;;16.50;94.50;;;;;;5058127;28;20500;-74
2021/05/11 06:38:58;;;;;;;18.58;6.10;;;16.50;94.00;;;;;;5082728;28;20509;-73
2021/05/11 06:41:26;;;;;;;17.65;6.40;;;16.50;94.20;;;;;;5080886;28;20423;-70
2021/05/11 06:43:56;;;;;;;14.48;5.45;;;16.60;94.00;;;;;;5084298;28;20417;-72
2021/05/11 06:49:26;;;;;;;15.80;5.05;;;16.60;93.40;;;;;;5084842;28;20417;-74
2021/05/11 06:54:38;;;;;;;11.32;4.80;;;16.70;92.90;;;;;;5079896;28;20418;-73
2021/05/11 06:57:05;;;;;;;13.95;5.07;;;16.80;92.90;;;;;;5066256;28;20910;-73
2021/05/11 06:59:32;;;;;;;15.37;5.10;;;16.80;93.60;;;;;;5099085;28;20426;-73
2021/05/11 07:02:00;;;;;;;14.50;4.70;;;16.90;92.90;;;;;;5081335;28;20520;-74
2021/05/11 07:04:26;;;;;;;14.18;5.20;;;16.90;93.40;;;;;;5082151;28;20532;-76
2021/05/11 07:06:53;;;;;;;14.20;5.07;;;17.00;93.10;;;;;;5067029;28;20434;-73
2021/05/11 07:09:28;;;;;;;11.80;4.90;;;17.00;93.00;;;;;;5086156;28;20426;-74
2021/05/11 07:14:40;;;;;;;13.18;5.28;;;17.10;93.50;;;;;;5081334;28;20422;-74
2021/05/11 07:17:06;;;;;;;11.20;4.82;;;17.20;92.80;;;;;;5083267;28;20431;-73
2021/05/11 07:19:33;;;;;;;11.75;5.20;;;17.20;92.80;;;;;;5088185;28;20901;-74
2021/05/11 07:21:59;;;;;;;15.00;5.20;;;17.20;92.70;;;;;;5086535;28;21008;-73
2021/05/11 07:24:27;;;;;;;12.25;4.75;;;17.30;92.90;;;;;;5087027;28;20425;-72
2021/05/11 07:27:12;;;;;;;14.80;4.85;;;17.30;93.00;;;;;;5081126;28;20546;-74
2021/05/11 07:29:46;;;;;;;11.95;3.88;;;17.40;92.10;;;;;;5070622;28;20910;-73
2021/05/11 07:32:13;;;;;;;10.25;3.28;;;17.40;91.20;;;;;;5083294;28;20441;-73
2021/05/11 07:34:42;;;;;;;10.20;3.10;;;17.50;90.40;;;;;;5085153;28;20837;-74
2021/05/11 07:37:09;;;;;;;10.07;3.47;;;17.50;90.20;;;;;;5083099;28;20429;-73
2021/05/11 07:39:36;;;;;;;13.18;3.47;;;17.50;90.10;;;;;;5067062;28;20432;-72
2021/05/11 07:42:02;;;;;;;7.32;2.97;;;17.60;89.30;;;;;;5083694;28;20430;-72
2021/05/11 07:44:30;;;;;;;11.18;3.50;;;17.60;89.10;;;;;;5085905;28;20504;-73
2021/05/11 07:47:03;;;;;;;7.85;3.05;;;17.70;89.70;;;;;;5081677;28;20414;-72
2021/05/11 08:14:37;;;;;;;10.27;3.27;;;18.20;84.70;;;;;;5087227;28;20484;-73
2021/05/11 08:17:04;;;;;;;10.23;3.67;;;18.20;83.80;;;;;;5082181;28;20432;-73
2021/05/11 08:27:57;;;;;;;10.48;4.45;;;18.20;86.40;;;;;;5081714;28;20428;-73
2021/05/11 08:30:24;;;;;;;10.20;5.10;;;18.30;87.10;;;;;;5085641;28;20543;-74
2021/05/11 08:32:51;;;;;;;12.48;5.40;;;18.30;87.80;;;;;;5086402;28;20433;-74
2021/05/11 08:35:18;;;;;;;13.95;5.80;;;18.40;87.10;;;;;;5085043;28;20422;-73
2021/05/11 08:37:45;;;;;;;13.40;5.88;;;18.40;86.90;;;;;;5082315;28;20421;-73
2021/05/11 08:40:12;;;;;;;13.40;6.30;;;18.50;87.80;;;;;;5084577;28;20945;-74
2021/05/11 08:42:38;;;;;;;18.08;6.93;;;18.60;88.20;;;;;;5063948;28;20494;-73
2021/05/11 08:45:08;;;;;;;14.48;7.90;;;18.70;88.40;;;;;;5083962;28;20534;-73
2021/05/11 08:47:48;;;;;;;16.48;8.30;;;18.80;88.40;;;;;;5077442;28;20956;-73
2021/05/11 08:50:15;;;;;;;15.55;8.82;;;18.90;88.70;;;;;;5081194;28;20512;-74
2021/05/11 08:52:52;;;;;;;16.80;9.98;;;19.00;88.80;;;;;;5083317;28;20419;-74
2021/05/11 08:59:54;;;;;;;18.75;10.63;;;19.00;88.70;;;;;;5084065;28;20426;-74
2021/05/11 09:07:14;;;;;;;19.35;11.60;;;19.40;88.70;;;;;;5082774;28;20460;-74
2021/05/11 09:13:56;;;;;;;19.70;11.70;;;19.40;88.60;;;;;;5097439;28;20451;-74
2021/05/11 09:24:00;;;;;;;15.60;9.75;;;19.70;88.80;;;;;;5080023;28;20224;-73
2021/05/11 09:26:36;;;;;;;17.35;9.43;;;19.40;90.00;;;;;;5068935;28;20229;-74
2021/05/11 09:29:06;;;;;;;13.35;8.88;;;19.30;90.50;;;;;;5085417;28;20205;-77
2021/05/11 09:31:48;;;;;;;15.52;8.88;;;19.20;90.80;;;;;;5083006;28;20189;-74
2021/05/11 09:34:25;;;;;;;10.95;8.40;;;19.10;91.00;;;;;;5082721;28;20592;-73
2021/05/11 09:51:09;;;;;;;16.10;8.88;;;19.10;91.80;;;;;;5086395;28;20197;-73
2021/05/11 09:56:49;;;;;;;16.52;10.00;;;19.00;91.90;;;;;;5061968;28;20206;-74
2021/05/11 09:59:49;;;;;;;16.20;9.77;;;19.10;92.00;;;;;;5083803;28;20213;-73
2021/05/11 10:40:10;;;;;;;21.20;13.13;;;19.00;91.90;;;;;;5086979;28;20805;-73
2021/05/11 10:48:42;;;;;;;21.50;13.45;;;18.90;92.80;;;;;;5088644;28;20209;-73
2021/05/11 10:51:24;;;;;;;22.10;12.85;;;18.90;93.00;;;;;;5085279;28;20220;-73
2021/05/11 10:54:01;;;;;;;20.33;11.88;;;19.00;93.40;;;;;;5085562;28;20240;-73
2021/05/11 10:59:55;;;;;;;18.55;11.70;;;19.00;93.70;;;;;;5065036;28;20259;-73
2021/05/11 11:05:40;;;;;;;22.20;12.00;;;19.00;93.60;;;;;;5085982;28;20200;-74
2021/05/11 11:08:26;;;;;;;23.45;12.32;;;19.10;93.90;;;;;;5086015;28;20254;-73
2021/05/11 11:11:02;;;;;;;24.05;12.25;;;19.10;94.40;;;;;;5084515;28;20206;-73
2021/05/11 11:13:29;;;;;;;19.75;11.82;;;19.20;94.80;;;;;;5084699;28;20266;-73
2021/05/11 11:15:59;;;;;;;19.73;13.13;;;19.10;95.20;;;;;;5089290;28;20194;-72
2021/05/11 11:18:25;;;;;;;19.38;12.95;;;19.10;95.40;;;;;;5070350;28;20231;-72
2021/05/11 11:21:08;;;;;;;18.85;12.02;;;19.20;95.70;;;;;;5099869;28;20214;-73
2021/05/11 11:23:42;;;;;;;20.48;13.30;;;19.20;95.90;;;;;;5084210;28;20414;-72
2021/05/11 11:26:11;;;;;;;18.13;12.53;;;19.80;95.40;;;;;;5083617;28;20445;-73
2021/05/11 11:28:38;;;;;;;18.70;12.20;;;20.20;93.60;;;;;;5086447;28;20437;-73
2021/05/11 11:31:23;;;;;;;17.25;12.52;;;20.40;92.60;;;;;;5086359;28;20425;-75
2021/05/11 11:33:50;;;;;;;21.60;12.60;;;20.60;91.80;;;;;;5085584;28;22680;-71
2021/05/11 11:36:31;;;;;;;17.75;12.43;;;20.80;91.10;;;;;;5064490;28;20550;-74
2021/05/11 11:38:58;;;;;;;17.38;12.50;;;20.90;90.70;;;;;;5102012;28;20427;-72
2021/05/11 11:41:26;;;;;;;17.70;12.55;;;21.00;90.00;;;;;;5083878;28;20444;-72
2021/05/11 11:43:52;;;;;;;16.10;11.60;;;21.20;89.70;;;;;;5066463;28;20420;-72
2021/05/11 11:46:26;;;;;;;18.05;11.95;;;21.20;89.30;;;;;;5084819;28;20885;-73
2021/05/11 11:48:58;;;;;;;19.53;13.03;;;21.30;89.10;;;;;;5082861;28;20432;-72
2021/05/11 11:51:29;;;;;;;17.17;12.80;;;21.40;88.00;;;;;;5081370;28;20432;-72
2021/05/11 11:54:20;;;;;;;17.77;13.15;;;21.40;89.10;;;;;;5083389;28;20989;-72
2021/05/11 11:59:31;;;;;;;16.65;12.75;;;21.50;88.40;;;;;;5064632;28;20513;-74
2021/05/11 12:01:58;;;;;;;20.27;12.80;;;21.50;87.40;;;;;;5066541;28;20430;-74
2021/05/11 12:04:25;;;;;;;18.20;13.13;;;21.60;86.30;;;;;;5086128;28;20884;-74
2021/05/11 12:06:52;;;;;;;18.52;13.20;;;21.60;84.70;;;;;;5084784;28;20433;-74
2021/05/11 12:09:21;;;;;;;19.17;13.40;;;21.60;83.40;;;;;;5085033;28;20452;-74
2021/05/11 12:11:48;;;;;;;18.48;12.82;;;21.60;84.00;;;;;;5083098;28;20858;-73
2021/05/11 12:14:16;;;;;;;17.92;12.98;;;21.50;84.60;;;;;;5086807;28;20795;-73
2021/05/11 12:16:47;;;;;;;18.98;13.85;;;21.50;84.30;;;;;;5083356;28;20421;-73
2021/05/11 12:19:16;;;;;;;20.60;13.70;;;21.50;86.00;;;;;;5083629;28;20525;-73
2021/05/11 12:21:52;;;;;;;19.52;13.93;;;21.50;86.60;;;;;;5086540;28;20490;-73
2021/05/11 12:24:20;;;;;;;20.67;14.15;;;21.40;87.50;;;;;;5067329;28;21341;-73
2021/05/11 12:26:47;;;;;;;19.77;14.25;;;21.40;87.40;;;;;;5084414;28;20425;-73
2021/05/11 12:29:15;;;;;;;21.35;13.95;;;21.40;87.60;;;;;;5085734;28;20944;-74
2021/05/11 12:31:43;;;;;;;22.83;14.80;;;21.40;88.90;;;;;;5085886;28;20755;-73
2021/05/11 12:34:13;;;;;;;23.77;14.90;;;21.40;89.00;;;;;;5085624;28;20422;-73
2021/05/11 12:36:48;;;;;;;22.20;14.80;;;21.30;90.30;;;;;;5084649;28;20778;-73
2021/05/11 12:39:21;;;;;;;25.40;15.80;;;21.30;90.50;;;;;;5084063;28;20514;-73
2021/05/11 12:41:48;;;;;;;24.85;15.50;;;21.20;91.20;;;;;;5077718;28;20434;-73
2021/05/11 12:44:29;;;;;;;21.98;15.32;;;21.10;91.70;;;;;;5084855;28;20834;-72
2021/05/11 12:46:59;;;;;;;22.00;15.15;;;21.10;90.90;;;;;;5065996;28;20566;-72
2021/05/11 12:49:26;;;;;;;21.48;15.25;;;21.00;90.90;;;;;;5083075;28;20425;-74
2021/05/11 12:51:55;;;;;;;23.90;15.07;;;20.90;91.50;;;;;;5096239;27;20433;-74
2021/05/11 12:54:26;;;;;;;22.58;15.45;;;21.00;91.70;;;;;;5098870;28;20422;-74
2021/05/11 12:57:10;;;;;;;22.37;16.27;;;20.90;91.80;;;;;;5084579;28;20433;-72
2021/05/11 12:59:43;;;;;;;25.67;15.43;;;20.80;91.90;;;;;;5098771;28;20516;-73
2021/05/11 13:02:24;;;;;;;23.50;15.83;;;20.80;92.10;;;;;;5077493;28;20848;-73
2021/05/11 13:05:02;;;;;;;24.27;16.08;;;20.70;92.00;;;;;;5085188;28;20437;-74
2021/05/11 13:21:31;;;;;;;26.83;17.27;;;20.50;92.50;;;;;;5063747;28;20413;-73
2021/05/11 13:26:45;;;;;;;23.48;16.13;;;20.40;93.50;;;;;;5065746;28;20933;-73
2021/05/11 13:29:22;;;;;;;27.05;17.85;;;20.30;94.40;;;;;;5095701;28;20437;-72
2021/05/11 13:31:52;;;;;;;26.52;17.33;;;20.10;95.80;;;;;;5064674;28;22386;-73
2021/05/11 13:34:20;;;;;;;23.00;18.10;;;19.90;96.30;;;;;;5081825;28;20522;-72
2021/05/11 13:36:47;;;;;;;32.47;18.92;;;19.60;96.60;;;;;;5062296;28;20474;-75
2021/05/11 13:39:13;;;;;;;29.73;19.20;;;19.20;97.40;;;;;;5077828;28;20437;-73
2021/05/11 13:41:42;;;;;;;28.27;18.87;;;18.90;98.60;;;;;;5087588;28;20729;-73
2021/05/11 13:44:08;;;;;;;27.58;18.08;;;18.60;98.90;;;;;;5086919;28;20427;-73
2021/05/11 13:46:36;;;;;;;25.40;17.35;;;18.40;99.70;;;;;;5069312;28;21235;-72
2021/05/11 13:49:03;;;;;;;27.25;16.25;;;18.20;99.80;;;;;;5086289;28;20441;-74
2021/05/11 13:51:29;;;;;;;20.67;12.93;;;18.00;99.90;;;;;;5066843;28;20409;-72
2021/05/11 13:53:58;;;;;;;19.63;12.55;;;17.90;99.60;;;;;;5078317;28;20434;-72
2021/05/11 13:56:39;;;;;;;23.73;13.40;;;17.70;98.70;;;;;;5086938;28;20406;-72
2021/05/11 14:04:34;;;;;;;14.38;9.18;;;17.40;99.00;;;;;;5085076;28;20528;-73
2021/05/11 14:07:01;;;;;;;15.70;9.32;;;17.40;99.50;;;;;;5086885;28;20410;-73
2021/05/11 14:09:28;;;;;;;17.42;11.02;;;17.40;99.90;;;;;;5104907;28;20500;-73
2021/05/11 14:11:54;;;;;;;12.10;7.55;;;17.50;99.90;;;;;;5088341;28;22015;-73
2021/05/11 14:14:21;;;;;;;9.73;4.97;;;17.50;99.90;;;;;;5089103;28;20884;-74
2021/05/11 14:16:48;;;;;;;11.25;5.82;;;17.50;98.50;;;;;;5089612;28;20425;-73
2021/05/11 14:19:18;;;;;;;11.68;6.65;;;17.50;98.50;;;;;;5090703;28;20471;-73
2021/05/11 14:21:44;;;;;;;10.43;6.30;;;17.50;99.90;;;;;;5071330;28;20771;-72
2021/05/11 14:24:11;;;;;;;12.03;6.17;;;17.60;99.90;;;;;;5090021;28;20428;-74
2021/05/11 14:26:38;;;;;;;12.05;6.20;;;17.60;99.90;;;;;;5073420;28;20445;-73
2021/05/11 14:29:04;;;;;;;11.88;6.35;;;17.70;99.90;;;;;;5092533;28;21361;-73
2021/05/11 14:31:31;;;;;;;13.03;7.67;;;17.70;99.90;;;;;;5088740;28;20413;-74
2021/05/11 14:33:57;;;;;;;10.93;6.80;;;17.80;99.90;;;;;;5091729;28;20436;-73
2021/05/11 14:36:25;;;;;;;15.70;9.30;;;17.80;99.90;;;;;;5091310;28;20410;-74
2021/05/11 14:38:51;;;;;;;16.60;9.27;;;17.80;99.90;;;;;;5089908;28;20492;-74
2021/05/11 14:41:19;;;;;;;16.15;10.07;;;17.80;99.90;;;;;;5091616;28;20409;-73
2021/05/11 14:43:46;;;;;;;18.92;12.25;;;17.80;99.90;;;;;;5091939;28;20410;-75
2021/05/11 14:46:13;;;;;;;20.55;12.00;;;17.90;99.90;;;;;;5091679;28;20512;-74
2021/05/11 14:48:40;;;;;;;21.20;13.20;;;17.90;99.90;;;;;;5087795;28;20421;-74
2021/05/11 14:51:07;;;;;;;19.45;12.32;;;17.90;99.90;;;;;;5089615;28;20876;-73
2021/05/11 14:53:36;;;;;;;18.00;11.15;;;18.00;99.90;;;;;;5090642;28;20478;-74
2021/05/11 14:56:03;;;;;;;14.95;9.88;;;18.00;99.90;;;;;;5089353;28;20757;-74
2021/05/11 14:58:30;;;;;;;13.80;8.50;;;18.00;99.90;;;;;;5089578;28;20425;-74
2021/05/11 15:00:57;;;;;;;13.90;8.23;;;18.10;99.90;;;;;;5090757;28;20414;-74
2021/05/11 15:03:23;;;;;;;12.23;7.57;;;18.10;99.90;;;;;;5090837;28;20414;-74
2021/05/11 15:05:49;;;;;;;11.45;6.60;;;18.20;99.90;;;;;;5070530;28;20468;-74
2021/05/11 15:08:16;;;;;;;9.98;6.25;;;18.20;99.90;;;;;;5103435;28;20418;-74
2021/05/11 15:10:43;;;;;;;12.07;6.75;;;18.20;98.70;;;;;;5091102;28;20414;-74
2021/05/11 15:13:11;;;;;;;10.90;5.80;;;18.20;99.80;;;;;;5089994;28;20902;-76
2021/05/11 15:15:39;;;;;;;8.75;4.82;;;18.20;99.70;;;;;;5089514;28;20414;-74
2021/05/11 15:18:06;;;;;;;8.63;3.88;;;18.20;99.00;;;;;;5087603;28;20434;-75
2021/05/11 15:20:35;;;;;;;8.50;4.30;;;18.20;98.10;;;;;;5090296;28;20416;-75
2021/05/11 15:23:03;;;;;;;8.33;4.13;;;18.30;99.00;;;;;;5081759;28;21010;-74
2021/05/11 15:25:30;;;;;;;8.55;4.47;;;18.30;98.00;;;;;;5057540;28;20952;-75
2021/05/11 15:27:58;;;;;;;6.37;4.07;;;18.40;98.30;;;;;;5079895;28;20594;-74
2021/05/11 15:30:26;;;;;;;15.87;9.87;;;18.40;98.30;;;;;;5081372;28;20792;-74
2021/05/11 15:32:55;;;;;;;64.20;44.75;;;18.40;98.10;;;;;;5066767;28;23539;-75
2021/05/11 15:35:23;;;;;;;42.80;29.70;;;18.40;97.60;;;;;;5078775;28;20478;-75
2021/05/11 15:37:58;;;;;;;32.38;22.23;;;18.40;98.10;;;;;;5063863;28;20421;-75
2021/05/11 15:40:26;;;;;;;29.00;18.77;;;18.40;97.90;;;;;;5077269;28;20413;-73
2021/05/11 15:42:53;;;;;;;12.00;7.20;;;18.40;97.60;;;;;;5066191;28;20471;-74
2021/05/11 15:45:21;;;;;;;19.15;12.73;;;18.50;97.80;;;;;;5086339;28;20917;-75
2021/05/11 15:47:56;;;;;;;15.20;10.80;;;18.60;98.10;;;;;;5081421;28;21141;-73
2021/05/11 15:50:24;;;;;;;16.48;9.57;;;18.60;97.10;;;;;;5106905;28;20426;-73
2021/05/11 15:52:51;;;;;;;9.03;5.90;;;18.70;97.20;;;;;;5088506;28;20559;-74
2021/05/11 15:55:18;;;;;;;9.55;6.30;;;18.70;97.70;;;;;;5086204;28;20970;-74
2021/05/11 15:57:44;;;;;;;12.50;8.45;;;18.80;97.90;;;;;;5088420;28;20501;-75
2021/05/11 16:00:12;;;;;;;8.40;4.97;;;18.80;96.90;;;;;;5089083;28;20410;-75
2021/05/11 16:02:44;;;;;;;13.48;8.82;;;18.90;96.20;;;;;;5086340;28;21008;-74
2021/05/11 16:05:12;;;;;;;10.73;7.40;;;18.90;97.00;;;;;;5106502;28;20534;-75
2021/05/11 16:07:39;;;;;;;12.80;8.33;;;19.00;96.80;;;;;;5089810;28;20475;-75
2021/05/11 16:10:07;;;;;;;15.95;9.52;;;19.00;96.40;;;;;;5087064;28;20435;-74
2021/05/11 16:12:34;;;;;;;10.90;5.93;;;19.00;96.30;;;;;;5088004;28;20784;-75
2021/05/11 16:15:02;;;;;;;6.22;4.07;;;19.00;96.20;;;;;;5089411;28;20433;-76